EWG9GK EDDP-EDDH
Flight info
| Callsign | EWG9GK |
|---|---|
| Flight time | 0h 35m |
| Altitude | 26000 |
| Route | PENEM1N PENEM Y233 ODLUN Z207 MAG M736 LODRO/N0455F280 M736 SOGMA M748 ERNUD M726 BKD L619 BUMIL/N0429F240 M748 RARUP RARUP3S |
| Aircraft | A320/M-SDE3FGHIRWY/LB1 |
Departure
| Time | 2026-04-25 20:32 |
|---|---|
| Airport | Leipzig/Halle Airport (EDDP) |
Arrival
| Time | 2026-04-25 21:07 |
|---|---|
| Airport | Hamburg Helmut Schmidt Airport (EDDH) |
| Time | Latitude | Longitude | Altitude | Speed | Heading |
|---|---|---|---|---|---|
| 2026-04-25 19:49 | 51.41923 | 12.21957 | 436 ft | 0 kts | 15° |
| 2026-04-25 20:17 | 51.41899 | 12.21946 | 422 ft | 4 kts | 17° |
| 2026-04-25 20:17 | 51.41874 | 12.21933 | 424 ft | 4 kts | 18° |
| 2026-04-25 20:18 | 51.41850 | 12.21920 | 423 ft | 3 kts | 27° |
| 2026-04-25 20:18 | 51.41836 | 12.21907 | 422 ft | 2 kts | 57° |
| 2026-04-25 20:18 | 51.41831 | 12.21891 | 422 ft | 2 kts | 95° |
| 2026-04-25 20:18 | 51.41833 | 12.21874 | 422 ft | 2 kts | 104° |
| 2026-04-25 20:19 | 51.41835 | 12.21861 | 423 ft | 0 kts | 105° |
| 2026-04-25 20:23 | 51.41833 | 12.21871 | 425 ft | 5 kts | 106° |
| 2026-04-25 20:23 | 51.41819 | 12.21952 | 424 ft | 7 kts | 105° |
| 2026-04-25 20:23 | 51.41806 | 12.22027 | 426 ft | 7 kts | 105° |
| 2026-04-25 20:23 | 51.41787 | 12.22139 | 431 ft | 12 kts | 105° |
| 2026-04-25 20:24 | 51.41767 | 12.22258 | 436 ft | 11 kts | 104° |
| 2026-04-25 20:24 | 51.41747 | 12.22371 | 427 ft | 11 kts | 106° |
| 2026-04-25 20:24 | 51.41724 | 12.22508 | 434 ft | 15 kts | 105° |
| 2026-04-25 20:24 | 51.41701 | 12.22641 | 447 ft | 13 kts | 105° |
| 2026-04-25 20:25 | 51.41671 | 12.22814 | 453 ft | 15 kts | 105° |
| 2026-04-25 20:25 | 51.41642 | 12.22987 | 458 ft | 20 kts | 104° |
| 2026-04-25 20:25 | 51.41606 | 12.23196 | 461 ft | 18 kts | 104° |
| 2026-04-25 20:25 | 51.41603 | 12.23384 | 467 ft | 18 kts | 85° |
| 2026-04-25 20:26 | 51.41614 | 12.23611 | 470 ft | 20 kts | 85° |
| 2026-04-25 20:26 | 51.41624 | 12.23826 | 472 ft | 19 kts | 85° |
| 2026-04-25 20:26 | 51.41629 | 12.23960 | 474 ft | 17 kts | 86° |
| 2026-04-25 20:26 | 51.41637 | 12.24136 | 471 ft | 17 kts | 85° |
| 2026-04-25 20:27 | 51.41648 | 12.24368 | 472 ft | 22 kts | 85° |
| 2026-04-25 20:27 | 51.41657 | 12.24537 | 477 ft | 12 kts | 84° |
| 2026-04-25 20:27 | 51.41706 | 12.24615 | 477 ft | 10 kts | 17° |
| 2026-04-25 20:27 | 51.41796 | 12.24650 | 476 ft | 17 kts | 13° |
| 2026-04-25 20:28 | 51.41896 | 12.24688 | 489 ft | 12 kts | 14° |
| 2026-04-25 20:28 | 51.41998 | 12.24727 | 482 ft | 20 kts | 13° |
| 2026-04-25 20:28 | 51.42142 | 12.24782 | 485 ft | 22 kts | 13° |
| 2026-04-25 20:28 | 51.42293 | 12.24840 | 484 ft | 21 kts | 14° |
| 2026-04-25 20:29 | 51.42437 | 12.24897 | 475 ft | 23 kts | 13° |
| 2026-04-25 20:29 | 51.42578 | 12.24950 | 466 ft | 22 kts | 14° |
| 2026-04-25 20:29 | 51.42726 | 12.25007 | 458 ft | 21 kts | 14° |
| 2026-04-25 20:29 | 51.42867 | 12.25062 | 450 ft | 19 kts | 14° |
| 2026-04-25 20:30 | 51.42925 | 12.25084 | 448 ft | 12 kts | 14° |
| 2026-04-25 20:30 | 51.43022 | 12.25118 | 449 ft | 9 kts | 3° |
| 2026-04-25 20:30 | 51.43071 | 12.25066 | 449 ft | 11 kts | 300° |
| 2026-04-25 20:30 | 51.43120 | 12.24912 | 448 ft | 18 kts | 296° |
| 2026-04-25 20:31 | 51.43178 | 12.24715 | 435 ft | 21 kts | 295° |
| 2026-04-25 20:31 | 51.43247 | 12.24487 | 441 ft | 24 kts | 290° |
| 2026-04-25 20:31 | 51.43247 | 12.24199 | 433 ft | 35 kts | 265° |
| 2026-04-25 20:31 | 51.43209 | 12.23388 | 442 ft | 108 kts | 265° |
| 2026-04-25 20:32 | 51.43139 | 12.21896 | 570 ft | 148 kts | 266° |
| 2026-04-25 20:32 | 51.43152 | 12.20286 | 1276 ft | 146 kts | 283° |
| 2026-04-25 20:32 | 51.43652 | 12.18867 | 1965 ft | 151 kts | 313° |
| 2026-04-25 20:32 | 51.44545 | 12.17842 | 2462 ft | 167 kts | 323° |
| 2026-04-25 20:33 | 51.45581 | 12.16748 | 2836 ft | 190 kts | 323° |
| 2026-04-25 20:33 | 51.46752 | 12.15478 | 3161 ft | 219 kts | 323° |
| 2026-04-25 20:33 | 51.48067 | 12.14017 | 3773 ft | 235 kts | 322° |
| 2026-04-25 20:33 | 51.48962 | 12.13011 | 4355 ft | 239 kts | 322° |
| 2026-04-25 20:34 | 51.50791 | 12.10943 | 5660 ft | 241 kts | 322° |
| 2026-04-25 20:34 | 51.52184 | 12.09422 | 6617 ft | 245 kts | 328° |
| 2026-04-25 20:34 | 51.53802 | 12.08449 | 7498 ft | 255 kts | 344° |
| 2026-04-25 20:34 | 51.55654 | 12.08219 | 8036 ft | 277 kts | 359° |
| 2026-04-25 20:35 | 51.57589 | 12.08366 | 8847 ft | 285 kts | 0° |
| 2026-04-25 20:35 | 51.59584 | 12.08538 | 9700 ft | 289 kts | 360° |
| 2026-04-25 20:35 | 51.61626 | 12.08664 | 10371 ft | 303 kts | 359° |
| 2026-04-25 20:35 | 51.63809 | 12.08730 | 10698 ft | 326 kts | 358° |
| 2026-04-25 20:36 | 51.66162 | 12.08764 | 10963 ft | 349 kts | 358° |
| 2026-04-25 20:36 | 51.68629 | 12.08479 | 11449 ft | 359 kts | 346° |
| 2026-04-25 20:36 | 51.70995 | 12.07177 | 12161 ft | 361 kts | 331° |
| 2026-04-25 20:36 | 51.73079 | 12.04918 | 12883 ft | 362 kts | 316° |
| 2026-04-25 20:37 | 51.74824 | 12.01980 | 13605 ft | 365 kts | 311° |
| 2026-04-25 20:37 | 51.76542 | 11.98948 | 14317 ft | 368 kts | 310° |
| 2026-04-25 20:37 | 51.78280 | 11.95865 | 15008 ft | 372 kts | 310° |
| 2026-04-25 20:37 | 51.80030 | 11.92751 | 15683 ft | 376 kts | 310° |
| 2026-04-25 20:38 | 51.81799 | 11.89608 | 16327 ft | 380 kts | 311° |
| 2026-04-25 20:38 | 51.83744 | 11.86678 | 16954 ft | 386 kts | 321° |
| 2026-04-25 20:38 | 51.86040 | 11.84366 | 17577 ft | 392 kts | 332° |
| 2026-04-25 20:38 | 51.88610 | 11.82811 | 18202 ft | 399 kts | 343° |
| 2026-04-25 20:39 | 51.91348 | 11.81919 | 18801 ft | 403 kts | 347° |
| 2026-04-25 20:39 | 51.94119 | 11.81082 | 19388 ft | 406 kts | 347° |
| 2026-04-25 20:39 | 51.96910 | 11.80230 | 19964 ft | 410 kts | 347° |
| 2026-04-25 20:39 | 51.98784 | 11.79801 | 20318 ft | 414 kts | 353° |
| 2026-04-25 20:40 | 52.02668 | 11.79948 | 21015 ft | 421 kts | 4° |
| 2026-04-25 20:40 | 52.05590 | 11.80452 | 21515 ft | 424 kts | 4° |
| 2026-04-25 20:40 | 52.08536 | 11.80964 | 22003 ft | 427 kts | 4° |
| 2026-04-25 20:40 | 52.11506 | 11.81481 | 22467 ft | 430 kts | 4° |
| 2026-04-25 20:41 | 52.14495 | 11.82001 | 22908 ft | 433 kts | 4° |
| 2026-04-25 20:41 | 52.17505 | 11.82525 | 23340 ft | 436 kts | 4° |
| 2026-04-25 20:41 | 52.20534 | 11.83050 | 23757 ft | 439 kts | 4° |
| 2026-04-25 20:41 | 52.23581 | 11.83574 | 24158 ft | 442 kts | 4° |
| 2026-04-25 20:42 | 52.26608 | 11.84096 | 24548 ft | 444 kts | 4° |
| 2026-04-25 20:42 | 52.29692 | 11.84630 | 24926 ft | 447 kts | 4° |
| 2026-04-25 20:42 | 52.32795 | 11.85168 | 25294 ft | 449 kts | 4° |
| 2026-04-25 20:42 | 52.35910 | 11.85708 | 25651 ft | 452 kts | 4° |
| 2026-04-25 20:43 | 52.39051 | 11.86252 | 26000 ft | 454 kts | 4° |
| 2026-04-25 20:43 | 52.42194 | 11.86799 | 26336 ft | 456 kts | 4° |
| 2026-04-25 20:43 | 52.45345 | 11.87352 | 26858 ft | 453 kts | 4° |
| 2026-04-25 20:43 | 52.48485 | 11.87906 | 27277 ft | 454 kts | 4° |
| 2026-04-25 20:44 | 52.51603 | 11.88454 | 27814 ft | 448 kts | 4° |
| 2026-04-25 20:44 | 52.54694 | 11.88993 | 27973 ft | 445 kts | 4° |
| 2026-04-25 20:44 | 52.60746 | 11.88973 | 28007 ft | 432 kts | 349° |
| 2026-04-25 20:45 | 52.66373 | 11.86093 | 28009 ft | 422 kts | 332° |
| 2026-04-25 20:45 | 52.71325 | 11.80708 | 28012 ft | 438 kts | 321° |
| 2026-04-25 20:46 | 52.76261 | 11.74423 | 28013 ft | 454 kts | 321° |
| 2026-04-25 20:46 | 52.81277 | 11.68034 | 28013 ft | 456 kts | 321° |
| 2026-04-25 20:47 | 52.86299 | 11.61630 | 28003 ft | 456 kts | 321° |
| 2026-04-25 20:47 | 52.88851 | 11.58497 | 27999 ft | 457 kts | 325° |
| 2026-04-25 20:47 | 52.91625 | 11.55892 | 28010 ft | 458 kts | 329° |
| 2026-04-25 20:48 | 52.96787 | 11.49795 | 28009 ft | 456 kts | 319° |
| 2026-04-25 20:48 | 53.01618 | 11.42937 | 27764 ft | 458 kts | 317° |
| 2026-04-25 20:49 | 53.04034 | 11.39467 | 27513 ft | 458 kts | 318° |
| 2026-04-25 20:49 | 53.06391 | 11.36155 | 27264 ft | 442 kts | 319° |
| 2026-04-25 20:49 | 53.08748 | 11.32919 | 27007 ft | 427 kts | 319° |
| 2026-04-25 20:49 | 53.11017 | 11.29859 | 26759 ft | 413 kts | 319° |
| 2026-04-25 20:50 | 53.13222 | 11.26993 | 26512 ft | 402 kts | 322° |
| 2026-04-25 20:50 | 53.15470 | 11.24318 | 26313 ft | 390 kts | 323° |
| 2026-04-25 20:50 | 53.17681 | 11.21825 | 26180 ft | 376 kts | 324° |
| 2026-04-25 20:50 | 53.19823 | 11.19455 | 25760 ft | 364 kts | 324° |
| 2026-04-25 20:51 | 53.21919 | 11.17123 | 25158 ft | 358 kts | 324° |
| 2026-04-25 20:51 | 53.23968 | 11.14811 | 24501 ft | 354 kts | 323° |
| 2026-04-25 20:51 | 53.25987 | 11.12518 | 23759 ft | 349 kts | 323° |
| 2026-04-25 20:51 | 53.27983 | 11.10249 | 22997 ft | 345 kts | 323° |
| 2026-04-25 20:52 | 53.29953 | 11.08011 | 22259 ft | 341 kts | 323° |
| 2026-04-25 20:52 | 53.31251 | 11.06537 | 21777 ft | 338 kts | 323° |
| 2026-04-25 20:52 | 53.33827 | 11.03611 | 20822 ft | 333 kts | 323° |
| 2026-04-25 20:52 | 53.35734 | 11.01447 | 20108 ft | 329 kts | 323° |
| 2026-04-25 20:53 | 53.37618 | 10.99308 | 19410 ft | 325 kts | 323° |
| 2026-04-25 20:53 | 53.39483 | 10.97192 | 18717 ft | 322 kts | 323° |
| 2026-04-25 20:53 | 53.41305 | 10.95125 | 18041 ft | 319 kts | 323° |
| 2026-04-25 20:53 | 53.43132 | 10.93053 | 17367 ft | 315 kts | 323° |
| 2026-04-25 20:54 | 53.44940 | 10.91003 | 16702 ft | 312 kts | 323° |
| 2026-04-25 20:54 | 53.46728 | 10.88977 | 16052 ft | 309 kts | 323° |
| 2026-04-25 20:54 | 53.48501 | 10.86968 | 15395 ft | 306 kts | 323° |
| 2026-04-25 20:54 | 53.50221 | 10.85023 | 15174 ft | 288 kts | 323° |
| 2026-04-25 20:55 | 53.51641 | 10.82872 | 15049 ft | 264 kts | 301° |
| 2026-04-25 20:55 | 53.52253 | 10.80132 | 14863 ft | 244 kts | 274° |
| 2026-04-25 20:55 | 53.52005 | 10.77345 | 14246 ft | 248 kts | 245° |
| 2026-04-25 20:55 | 53.50914 | 10.75081 | 13589 ft | 255 kts | 220° |
| 2026-04-25 20:56 | 53.49442 | 10.73368 | 12989 ft | 258 kts | 215° |
| 2026-04-25 20:56 | 53.47928 | 10.71759 | 12470 ft | 257 kts | 214° |
| 2026-04-25 20:56 | 53.46415 | 10.70173 | 11953 ft | 255 kts | 214° |
| 2026-04-25 20:56 | 53.44911 | 10.68606 | 11442 ft | 253 kts | 214° |
| 2026-04-25 20:57 | 53.43437 | 10.67016 | 10909 ft | 250 kts | 222° |
| 2026-04-25 20:57 | 53.42424 | 10.64757 | 10389 ft | 241 kts | 251° |
| 2026-04-25 20:57 | 53.41999 | 10.62055 | 9860 ft | 241 kts | 259° |
| 2026-04-25 20:57 | 53.41691 | 10.59303 | 9536 ft | 240 kts | 260° |
| 2026-04-25 20:58 | 53.41397 | 10.56556 | 9210 ft | 239 kts | 261° |
| 2026-04-25 20:58 | 53.41107 | 10.53826 | 8878 ft | 237 kts | 261° |
| 2026-04-25 20:58 | 53.40820 | 10.51116 | 8540 ft | 236 kts | 261° |
| 2026-04-25 20:58 | 53.40533 | 10.48413 | 8195 ft | 235 kts | 261° |
| 2026-04-25 20:59 | 53.40429 | 10.45715 | 7852 ft | 232 kts | 278° |
| 2026-04-25 20:59 | 53.40776 | 10.43071 | 7491 ft | 232 kts | 284° |
| 2026-04-25 20:59 | 53.41191 | 10.40482 | 6970 ft | 229 kts | 284° |
| 2026-04-25 20:59 | 53.41602 | 10.37987 | 6717 ft | 215 kts | 284° |
| 2026-04-25 21:00 | 53.41859 | 10.36438 | 6634 ft | 204 kts | 284° |
| 2026-04-25 21:00 | 53.42105 | 10.34957 | 6502 ft | 196 kts | 284° |
| 2026-04-25 21:00 | 53.43076 | 10.29136 | 5549 ft | 194 kts | 284° |
| 2026-04-25 21:01 | 53.43437 | 10.26968 | 5291 ft | 193 kts | 284° |
| 2026-04-25 21:01 | 53.43769 | 10.24978 | 5044 ft | 192 kts | 284° |
| 2026-04-25 21:01 | 53.44128 | 10.22825 | 4783 ft | 191 kts | 284° |
| 2026-04-25 21:01 | 53.44485 | 10.20679 | 4516 ft | 191 kts | 284° |
| 2026-04-25 21:02 | 53.44839 | 10.18547 | 4256 ft | 190 kts | 284° |
| 2026-04-25 21:02 | 53.45217 | 10.16427 | 3984 ft | 190 kts | 292° |
| 2026-04-25 21:02 | 53.45951 | 10.14589 | 3729 ft | 191 kts | 313° |
| 2026-04-25 21:02 | 53.47037 | 10.13323 | 3550 ft | 189 kts | 330° |
| 2026-04-25 21:03 | 53.48197 | 10.12362 | 3420 ft | 182 kts | 329° |
| 2026-04-25 21:03 | 53.49304 | 10.11423 | 3276 ft | 175 kts | 329° |
| 2026-04-25 21:03 | 53.50389 | 10.10496 | 3058 ft | 175 kts | 329° |
| 2026-04-25 21:03 | 53.51452 | 10.09584 | 2929 ft | 167 kts | 329° |
| 2026-04-25 21:04 | 53.52454 | 10.08728 | 2755 ft | 157 kts | 329° |
| 2026-04-25 21:04 | 53.53398 | 10.07920 | 2526 ft | 148 kts | 328° |
| 2026-04-25 21:04 | 53.54291 | 10.07155 | 2329 ft | 141 kts | 328° |
| 2026-04-25 21:04 | 53.55148 | 10.06419 | 2168 ft | 136 kts | 328° |
| 2026-04-25 21:05 | 53.55987 | 10.05698 | 1960 ft | 134 kts | 328° |
| 2026-04-25 21:05 | 53.56813 | 10.04986 | 1727 ft | 133 kts | 328° |
| 2026-04-25 21:05 | 53.57634 | 10.04267 | 1428 ft | 134 kts | 328° |
| 2026-04-25 21:05 | 53.58431 | 10.03577 | 1135 ft | 133 kts | 329° |
| 2026-04-25 21:06 | 53.59248 | 10.02873 | 900 ft | 131 kts | 328° |
| 2026-04-25 21:06 | 53.60063 | 10.02177 | 692 ft | 131 kts | 330° |
| 2026-04-25 21:06 | 53.60876 | 10.01479 | 484 ft | 131 kts | 329° |
| 2026-04-25 21:06 | 53.61139 | 10.01250 | 427 ft | 131 kts | 329° |
| 2026-04-25 21:07 | 53.62502 | 10.00064 | 181 ft | 132 kts | 329° |
| 2026-04-25 21:07 | 53.63305 | 9.99371 | 50 ft | 130 kts | 331° |
| 2026-04-25 21:07 | 53.63980 | 9.98783 | 49 ft | 85 kts | 333° |
| 2026-04-25 21:07 | 53.64353 | 9.98463 | 51 ft | 39 kts | 333° |
| 2026-04-25 21:08 | 53.64533 | 9.98370 | 56 ft | 19 kts | 357° |
| 2026-04-25 21:08 | 53.64635 | 9.98379 | 56 ft | 14 kts | 8° |
| 2026-04-25 21:08 | 53.64699 | 9.98428 | 51 ft | 10 kts | 56° |
| 2026-04-25 21:08 | 53.64681 | 9.98515 | 53 ft | 8 kts | 148° |
| 2026-04-25 21:09 | 53.64502 | 9.98671 | 51 ft | 20 kts | 153° |
| 2026-04-25 21:09 | 53.64371 | 9.98782 | 51 ft | 22 kts | 153° |
| 2026-04-25 21:09 | 53.64241 | 9.98897 | 50 ft | 22 kts | 154° |
| 2026-04-25 21:10 | 53.64114 | 9.99007 | 49 ft | 19 kts | 152° |
| 2026-04-25 21:10 | 53.63992 | 9.99111 | 48 ft | 21 kts | 153° |
| 2026-04-25 21:10 | 53.63875 | 9.99214 | 48 ft | 19 kts | 152° |
| 2026-04-25 21:10 | 53.63775 | 9.99331 | 48 ft | 17 kts | 136° |
| 2026-04-25 21:11 | 53.63703 | 9.99485 | 48 ft | 16 kts | 126° |
| 2026-04-25 21:11 | 53.63643 | 9.99629 | 49 ft | 12 kts | 126° |
| 2026-04-25 21:11 | 53.63614 | 9.99696 | 49 ft | 0 kts | 126° |
| 2026-04-25 21:13 | 53.63613 | 9.99698 | 49 ft | 2 kts | 126° |
| 2026-04-25 21:14 | 53.63593 | 9.99745 | 50 ft | 5 kts | 126° |
| 2026-04-25 21:14 | 53.63571 | 9.99796 | 50 ft | 5 kts | 126° |
| 2026-04-25 21:14 | 53.63543 | 9.99860 | 51 ft | 10 kts | 126° |
| 2026-04-25 21:14 | 53.63506 | 9.99945 | 51 ft | 7 kts | 126° |
| 2026-04-25 21:15 | 53.63475 | 10.00018 | 49 ft | 8 kts | 126° |
| 2026-04-25 21:15 | 53.63439 | 10.00100 | 48 ft | 9 kts | 126° |
| 2026-04-25 21:15 | 53.63404 | 10.00182 | 48 ft | 11 kts | 125° |
| 2026-04-25 21:15 | 53.63312 | 10.00237 | 48 ft | 14 kts | 176° |
| 2026-04-25 21:16 | 53.63226 | 10.00246 | 48 ft | 9 kts | 177° |
| 2026-04-25 21:16 | 53.63202 | 10.00288 | 48 ft | 5 kts | 95° |
| 2026-04-25 21:16 | 53.63205 | 10.00354 | 48 ft | 4 kts | 85° |
| 2026-04-25 21:16 | 53.63206 | 10.00363 | 48 ft | 1 kts | 85° |